createdAt,value
2023-05-18T00:03:37.016Z,98323.78
2023-05-18T00:08:41.856Z,98322.50
2023-05-18T00:13:45.459Z,98326.22
2023-05-18T00:18:48.808Z,98323.47
2023-05-18T00:23:53.772Z,98327.31
2023-05-18T00:28:57.277Z,98332.53
2023-05-18T00:34:02.583Z,98334.06
2023-05-18T00:39:09.099Z,98328.59
2023-05-18T00:44:12.416Z,98336.97
2023-05-18T00:49:15.856Z,98338.91
2023-05-18T00:54:21.072Z,98340.00
2023-05-18T00:59:24.409Z,98343.44
2023-05-18T01:04:32.019Z,98343.00
2023-05-18T01:09:37.079Z,98345.28
2023-05-18T01:14:45.699Z,98339.31
2023-05-18T01:20:08.189Z,98344.13
2023-05-18T01:25:19.777Z,98350.03
2023-05-18T01:30:25.337Z,98353.22
2023-05-18T01:35:29.191Z,98357.00
2023-05-18T01:40:37.629Z,98356.09
2023-05-18T01:45:45.632Z,98359.03
2023-05-18T01:50:50.372Z,98360.00
2023-05-18T01:55:55.764Z,98361.88
2023-05-18T02:01:00.931Z,98359.72
2023-05-18T02:06:04.861Z,98362.53
2023-05-18T02:11:08.352Z,98361.69
2023-05-18T02:16:13.809Z,98367.88
2023-05-18T02:21:17.360Z,98363.09
2023-05-18T02:26:21.042Z,98360.72
2023-05-18T02:31:31.113Z,98370.41
2023-05-18T02:36:40.411Z,98357.00
2023-05-18T02:41:44.096Z,98357.47
2023-05-18T02:46:49.136Z,98354.78
2023-05-18T02:51:52.484Z,98355.81
2023-05-18T02:56:56.970Z,98349.09
2023-05-18T03:02:14.537Z,98358.75
2023-05-18T03:07:18.181Z,98355.38
2023-05-18T03:12:21.825Z,98353.75
2023-05-18T03:17:26.821Z,98352.00
2023-05-18T03:22:30.605Z,98348.75
2023-05-18T03:27:34.380Z,98349.88
2023-05-18T03:32:41.700Z,98356.59
2023-05-18T03:37:45.475Z,98364.31
2023-05-18T03:42:48.898Z,98367.56
2023-05-18T03:47:53.805Z,98366.94
2023-05-18T03:52:57.363Z,98366.25
2023-05-18T03:58:02.031Z,98368.47
2023-05-18T04:03:07.149Z,98365.16
2023-05-18T04:08:14.678Z,98374.81
2023-05-18T04:13:18.226Z,98375.34
2023-05-18T04:18:23.029Z,98379.28
2023-05-18T04:23:26.806Z,98377.22
2023-05-18T04:28:30.500Z,98366.53
2023-05-18T04:33:35.228Z,98377.16
2023-05-18T04:38:39.405Z,98382.66
2023-05-18T04:43:42.894Z,98373.81
2023-05-18T04:48:50.055Z,98376.47
2023-05-18T04:53:53.625Z,98385.44
2023-05-18T04:59:00.242Z,98375.00
2023-05-18T05:04:07.358Z,98385.22
2023-05-18T05:09:13.942Z,98380.09
2023-05-18T05:14:17.344Z,98378.94
2023-05-18T05:19:22.039Z,98379.56
2023-05-18T05:24:25.360Z,98375.97
2023-05-18T05:29:29.321Z,98378.88
2023-05-18T05:34:35.149Z,98380.56
2023-05-18T05:39:39.676Z,98371.25
2023-05-18T05:44:43.964Z,98367.94
2023-05-18T05:49:49.187Z,98363.78
2023-05-18T05:54:54.342Z,98373.75
2023-05-18T05:59:58.006Z,98364.13
2023-05-18T06:05:03.884Z,98368.75
2023-05-18T06:10:08.478Z,98372.38
2023-05-18T06:15:12.861Z,98372.78
2023-05-18T06:20:18.794Z,98373.25
2023-05-18T06:25:22.597Z,98370.75
2023-05-18T06:30:44.357Z,98374.16
2023-05-18T06:36:01.192Z,98373.72
2023-05-18T06:41:05.985Z,98360.03
2023-05-18T06:46:10.123Z,98367.66
2023-05-18T06:51:17.897Z,98368.06
2023-05-18T06:56:23.378Z,98370.22
2023-05-18T07:01:29.628Z,98365.94
2023-05-18T07:06:37.710Z,98363.53
2023-05-18T07:11:41.622Z,98357.84
2023-05-18T07:16:47.378Z,98362.47
2023-05-18T07:21:52.401Z,98373.72
2023-05-18T07:26:55.824Z,98367.88
2023-05-18T07:31:59.412Z,98361.69
2023-05-18T07:37:05.213Z,98358.53
2023-05-18T07:42:09.823Z,98358.19
2023-05-18T07:47:13.353Z,98356.81
2023-05-18T07:52:18.138Z,98361.94
2023-05-18T07:57:21.437Z,98356.88
2023-05-18T08:02:24.925Z,98354.94
2023-05-18T08:07:32.974Z,98354.25
2023-05-18T08:12:36.375Z,98362.06
2023-05-18T08:17:40.074Z,98346.69
2023-05-18T08:22:44.847Z,98336.78
2023-05-18T08:27:48.119Z,98344.69
2023-05-18T08:32:51.743Z,98333.25
2023-05-18T08:37:56.764Z,98333.59
2023-05-18T08:43:05.103Z,98326.56
2023-05-18T08:48:09.489Z,98336.44
2023-05-18T08:53:14.633Z,98328.47
2023-05-18T08:58:21.620Z,98328.03
2023-05-18T09:03:26.426Z,98324.47
2023-05-18T09:08:33.289Z,98325.72
2023-05-18T09:13:36.759Z,98312.41
2023-05-18T09:18:40.279Z,98335.25
2023-05-18T09:23:46.396Z,98325.66
2023-05-18T09:28:54.406Z,98317.53
2023-05-18T09:33:59.995Z,98332.34
2023-05-18T09:39:09.509Z,98321.56
2023-05-18T09:44:12.949Z,98314.78
2023-05-18T09:49:22.967Z,98317.34
2023-05-18T09:54:27.846Z,98316.97
2023-05-18T09:59:31.538Z,98312.75
2023-05-18T10:04:39.828Z,98303.38
2023-05-18T10:09:45.909Z,98288.63
2023-05-18T10:14:50.650Z,98285.97
2023-05-18T10:19:56.057Z,98279.94
2023-05-18T10:25:03.587Z,98285.72
2023-05-18T10:30:09.721Z,98288.16
2023-05-18T10:35:13.569Z,98287.66
2023-05-18T10:40:19.071Z,98285.97
2023-05-18T10:45:22.782Z,98283.13
2023-05-18T10:50:27.131Z,98281.63
2023-05-18T10:55:32.077Z,98275.63
2023-05-18T11:00:36.844Z,98269.78
2023-05-18T11:05:41.130Z,98269.50
2023-05-18T11:10:47.428Z,98274.19
2023-05-18T11:16:07.344Z,98264.75
2023-05-18T11:21:36.746Z,98270.69
2023-05-18T11:26:41.947Z,98269.19
2023-05-18T11:31:45.472Z,98264.19
2023-05-18T11:36:50.554Z,98271.59
2023-05-18T11:42:02.181Z,98277.69
2023-05-18T11:47:08.534Z,98261.44
2023-05-18T11:52:17.638Z,98262.19
2023-05-18T11:57:26.673Z,98256.03
2023-05-18T12:02:33.882Z,98254.69
2023-05-18T12:07:37.410Z,98252.44
2023-05-18T12:12:42.535Z,98244.66
2023-05-18T12:17:46.746Z,98239.16
2023-05-18T12:22:52.672Z,98233.69
2023-05-18T12:27:57.950Z,98220.16
2023-05-18T12:33:01.645Z,98234.88
2023-05-18T12:38:06.208Z,98238.97
2023-05-18T12:43:10.983Z,98233.38
2023-05-18T12:48:15.172Z,98238.59
2023-05-18T12:53:19.619Z,98226.34
2023-05-18T12:58:25.195Z,98228.78
2023-05-18T13:03:35.141Z,98217.34
2023-05-18T13:08:38.648Z,98204.06
2023-05-18T13:13:58.916Z,98215.00
2023-05-18T13:19:04.486Z,98209.31
2023-05-18T13:24:08.185Z,98217.28
2023-05-18T13:29:13.179Z,98226.56
2023-05-18T13:34:16.575Z,98201.44
2023-05-18T13:39:19.899Z,98204.13
2023-05-18T13:44:24.478Z,98203.00
2023-05-18T13:49:27.734Z,98206.03
2023-05-18T13:54:30.957Z,98193.44
2023-05-18T13:59:36.090Z,98189.13
2023-05-18T14:04:39.708Z,98202.59
2023-05-18T14:09:43.192Z,98194.53
2023-05-18T14:14:47.913Z,98189.03
2023-05-18T14:19:51.078Z,98179.16
2023-05-18T14:24:54.816Z,98180.53
2023-05-18T14:29:59.690Z,98178.13
2023-05-18T14:35:03.313Z,98175.53
2023-05-18T14:40:07.952Z,98185.69
2023-05-18T14:45:13.187Z,98188.50
2023-05-18T14:50:17.855Z,98188.56
2023-05-18T14:55:21.064Z,98187.94
2023-05-18T15:00:25.750Z,98188.53
2023-05-18T15:05:29.431Z,98195.84
2023-05-18T15:10:35.352Z,98187.94
2023-05-18T15:15:40.110Z,98186.81
2023-05-18T15:20:43.608Z,98188.63
2023-05-18T15:25:46.895Z,98179.75
2023-05-18T15:30:51.409Z,98183.09
2023-05-18T15:35:54.852Z,98179.47
2023-05-18T15:40:58.203Z,98182.91
2023-05-18T15:46:02.879Z,98184.88
2023-05-18T15:51:07.586Z,98182.16
2023-05-18T15:56:10.919Z,98179.84
2023-05-18T16:01:15.529Z,98180.97
2023-05-18T16:06:19.158Z,98177.34
2023-05-18T16:11:22.440Z,98166.22
2023-05-18T16:16:27.081Z,98161.41
2023-05-18T16:21:30.483Z,98157.34
2023-05-18T16:26:34.963Z,98146.13
2023-05-18T16:31:40.097Z,98161.69
2023-05-18T16:36:43.496Z,98157.25
2023-05-18T16:41:46.598Z,98163.34
2023-05-18T16:46:51.884Z,98164.13
2023-05-18T16:51:55.337Z,98157.13
2023-05-18T16:56:58.745Z,98159.53
2023-05-18T17:02:03.415Z,98161.88
2023-05-18T17:07:06.975Z,98173.69
2023-05-18T17:12:11.314Z,98166.84
2023-05-18T17:17:15.886Z,98176.94
2023-05-18T17:22:19.133Z,98184.06
2023-05-18T17:27:22.790Z,98177.13
2023-05-18T17:32:27.912Z,98186.75
2023-05-18T17:37:31.375Z,98186.56
2023-05-18T17:42:34.859Z,98187.47
2023-05-18T17:47:41.590Z,98193.75
2023-05-18T17:52:45.182Z,98199.72
2023-05-18T17:57:48.397Z,98202.88
2023-05-18T18:02:53.197Z,98200.47
2023-05-18T18:07:57.608Z,98194.41
2023-05-18T18:13:01.193Z,98210.50
2023-05-18T18:18:06.475Z,98205.44
2023-05-18T18:23:09.982Z,98211.97
2023-05-18T18:28:15.368Z,98211.72
2023-05-18T18:33:20.984Z,98210.03
2023-05-18T18:38:26.963Z,98212.50
2023-05-18T18:43:30.277Z,98219.63
2023-05-18T18:48:34.953Z,98221.03
2023-05-18T18:53:38.542Z,98213.16
2023-05-18T18:58:41.787Z,98233.94
2023-05-18T19:03:46.922Z,98234.34
2023-05-18T19:08:52.156Z,98236.13
2023-05-18T19:13:56.477Z,98249.16
2023-05-18T19:19:08.591Z,98247.56
2023-05-18T19:24:11.906Z,98251.03
2023-05-18T19:29:15.249Z,98253.31
2023-05-18T19:34:20.042Z,98258.59
2023-05-18T19:39:24.221Z,98257.88
2023-05-18T19:44:27.753Z,98268.94
2023-05-18T19:49:32.585Z,98266.63
2023-05-18T19:54:36.163Z,98264.00
2023-05-18T19:59:39.730Z,98265.81
2023-05-18T20:04:44.565Z,98262.34
2023-05-18T20:09:48.108Z,98262.66
2023-05-18T20:14:51.606Z,98261.19
2023-05-18T20:19:56.430Z,98259.41
2023-05-18T20:25:05.727Z,98256.44
2023-05-18T20:30:10.183Z,98260.63
2023-05-18T20:35:15.942Z,98267.25
2023-05-18T20:40:19.331Z,98274.28
2023-05-18T20:45:22.979Z,98273.34
2023-05-18T20:50:27.784Z,98279.03
2023-05-18T20:55:32.124Z,98275.16
2023-05-18T21:00:36.043Z,98274.84
2023-05-18T21:05:40.828Z,98276.53
2023-05-18T21:10:44.255Z,98275.31
2023-05-18T21:15:47.441Z,98273.25
2023-05-18T21:20:53.099Z,98275.69
2023-05-18T21:25:57.176Z,98274.97
2023-05-18T21:31:00.488Z,98274.00
2023-05-18T21:36:06.061Z,98269.88
2023-05-18T21:41:09.381Z,98266.81
2023-05-18T21:46:12.674Z,98262.63
2023-05-18T21:51:17.888Z,98272.44
2023-05-18T21:56:21.348Z,98273.22
2023-05-18T22:01:25.563Z,98273.22
2023-05-18T22:06:30.580Z,98276.16
2023-05-18T22:11:34.030Z,98276.44
2023-05-18T22:16:37.614Z,98264.91
2023-05-18T22:21:42.901Z,98275.19
2023-05-18T22:26:46.338Z,98280.94
2023-05-18T22:31:49.714Z,98271.41
2023-05-18T22:36:54.533Z,98271.75
2023-05-18T22:41:57.920Z,98263.72
2023-05-18T22:47:01.663Z,98254.97
2023-05-18T22:52:08.262Z,98262.63
2023-05-18T22:57:11.654Z,98255.53
2023-05-18T23:02:15.147Z,98259.00
2023-05-18T23:07:20.109Z,98252.56
2023-05-18T23:12:23.501Z,98258.75
2023-05-18T23:17:27.122Z,98262.03
2023-05-18T23:22:32.002Z,98253.22
2023-05-18T23:27:36.054Z,98250.09
2023-05-18T23:32:40.245Z,98253.97
2023-05-18T23:37:48.980Z,98251.16
2023-05-18T23:42:53.006Z,98248.06
2023-05-18T23:47:57.054Z,98242.75
2023-05-18T23:53:04.501Z,98242.66
2023-05-18T23:58:08.917Z,98242.22
